Time;durP1;ratioP1;P1;durP2;ratioP2;P2;SDS_P1;SDS_P2;PMS_P1;PMS_P2;Temp;Humidity;BMP_temperature;BMP_pressure;BME280_temperature;BME280_humidity;BME280_pressure;Samples;Min_cycle;Max_cycle;Signal;HPM_P1;HPM_P2
2023/07/10 00:01:31;;;;;;;22.15;9.70;;;20.20;99.90;;;;;;5030506;28;20617;-70
2023/07/10 00:03:57;;;;;;;16.80;9.13;;;20.20;99.90;;;;;;5031954;28;20132;-71
2023/07/10 00:06:23;;;;;;;20.00;9.43;;;20.30;99.90;;;;;;5032484;28;20049;-69
2023/07/10 00:08:49;;;;;;;19.58;9.02;;;20.30;99.90;;;;;;5036056;28;20041;-69
2023/07/10 00:11:17;;;;;;;17.65;9.90;;;20.30;99.90;;;;;;5034903;28;20052;-69
2023/07/10 00:13:44;;;;;;;21.25;9.43;;;20.30;99.90;;;;;;5036337;28;20050;-69
2023/07/10 00:16:20;;;;;;;19.85;9.63;;;20.30;99.90;;;;;;5034200;28;20398;-72
2023/07/10 00:18:46;;;;;;;19.65;8.88;;;20.30;99.90;;;;;;5051541;28;20368;-69
2023/07/10 00:21:12;;;;;;;21.83;9.95;;;20.30;99.90;;;;;;5034368;28;20115;-71
2023/07/10 00:23:38;;;;;;;20.33;10.27;;;20.30;99.90;;;;;;5036012;28;20049;-69
2023/07/10 00:26:14;;;;;;;19.92;9.18;;;20.30;99.90;;;;;;5018367;28;20059;-70
2023/07/10 00:28:39;;;;;;;22.50;9.38;;;20.30;99.90;;;;;;5035727;28;20045;-69
2023/07/10 00:31:05;;;;;;;17.38;9.07;;;20.20;99.90;;;;;;5034652;28;20046;-69
2023/07/10 00:33:31;;;;;;;16.98;10.02;;;20.20;99.90;;;;;;5035105;28;20486;-69
2023/07/10 00:35:56;;;;;;;21.05;9.85;;;20.20;99.90;;;;;;5035673;28;20046;-69
2023/07/10 00:38:29;;;;;;;18.52;9.93;;;20.10;99.90;;;;;;5033968;28;20526;-68
2023/07/10 00:40:57;;;;;;;16.67;10.00;;;20.10;99.90;;;;;;5034420;28;20102;-69
2023/07/10 00:43:26;;;;;;;20.60;11.35;;;20.10;99.90;;;;;;5050503;28;20177;-68
2023/07/10 00:45:53;;;;;;;25.30;12.48;;;20.10;99.90;;;;;;5035618;28;20046;-69
2023/07/10 00:48:40;;;;;;;19.70;12.63;;;20.10;99.90;;;;;;5035167;28;20048;-69
2023/07/10 00:51:20;;;;;;;25.30;15.35;;;20.00;99.90;;;;;;5035557;28;20041;-68
2023/07/10 00:53:47;;;;;;;26.75;16.65;;;20.00;99.90;;;;;;5035472;28;20060;-69
2023/07/10 00:56:19;;;;;;;27.60;17.40;;;19.90;99.90;;;;;;5034604;28;20045;-69
2023/07/10 00:58:48;;;;;;;32.05;18.80;;;19.90;99.90;;;;;;5035527;28;20440;-69
2023/07/10 01:01:23;;;;;;;38.08;20.20;;;19.90;99.90;;;;;;5034187;28;20400;-69
2023/07/10 01:03:51;;;;;;;35.75;22.23;;;19.90;99.90;;;;;;5035211;28;20038;-68
2023/07/10 01:06:27;;;;;;;38.08;21.38;;;19.80;99.90;;;;;;5034199;28;20045;-73
2023/07/10 01:09:03;;;;;;;36.80;21.90;;;19.80;99.90;;;;;;5035186;28;20430;-69
2023/07/10 01:11:29;;;;;;;37.90;21.17;;;19.80;99.90;;;;;;5050220;28;20053;-71
2023/07/10 01:13:57;;;;;;;30.77;20.92;;;19.80;99.90;;;;;;5034759;28;20183;-70
2023/07/10 01:16:25;;;;;;;33.45;20.55;;;19.70;99.90;;;;;;5033984;28;20107;-69
2023/07/10 01:18:51;;;;;;;32.90;21.55;;;19.70;99.90;;;;;;5035038;28;20045;-68
2023/07/10 01:21:32;;;;;;;28.23;19.15;;;19.70;99.90;;;;;;5034896;28;20390;-74
2023/07/10 01:24:00;;;;;;;28.30;20.40;;;19.70;99.90;;;;;;5034823;28;20060;-69
2023/07/10 01:26:27;;;;;;;29.27;18.90;;;19.60;99.90;;;;;;5034226;28;20434;-69
2023/07/10 01:28:55;;;;;;;25.10;17.08;;;19.60;99.90;;;;;;5034916;28;20407;-69
2023/07/10 01:31:21;;;;;;;25.15;16.45;;;19.60;99.90;;;;;;5034732;28;20509;-73
2023/07/10 01:33:57;;;;;;;23.27;16.42;;;19.60;99.90;;;;;;5034803;28;20064;-69
2023/07/10 01:36:28;;;;;;;22.70;16.73;;;19.60;99.90;;;;;;5032888;28;20491;-69
2023/07/10 01:39:15;;;;;;;25.50;16.95;;;19.50;99.90;;;;;;5033591;28;20057;-69
2023/07/10 01:41:43;;;;;;;26.02;16.60;;;19.50;99.90;;;;;;5034242;28;20307;-69
2023/07/10 01:44:24;;;;;;;22.48;16.00;;;19.50;99.90;;;;;;5033414;28;20053;-69
2023/07/10 01:46:50;;;;;;;22.40;16.27;;;19.50;99.90;;;;;;5034899;28;20380;-69
2023/07/10 01:49:19;;;;;;;23.83;16.05;;;19.50;99.90;;;;;;5033284;28;20399;-69
2023/07/10 01:51:45;;;;;;;22.40;15.68;;;19.50;99.90;;;;;;5033118;28;20076;-68
2023/07/10 01:54:13;;;;;;;25.23;16.42;;;19.50;99.90;;;;;;5034323;28;20414;-68
2023/07/10 01:56:40;;;;;;;22.83;16.77;;;19.50;99.90;;;;;;5032962;28;20045;-69
2023/07/10 01:59:05;;;;;;;24.15;16.08;;;19.50;99.90;;;;;;5033314;28;20063;-69
2023/07/10 02:01:31;;;;;;;27.25;16.83;;;19.50;99.90;;;;;;5033410;28;20057;-69
2023/07/10 02:03:57;;;;;;;24.38;16.13;;;19.40;99.90;;;;;;5032957;28;20479;-69
2023/07/10 02:06:23;;;;;;;23.17;17.10;;;19.50;99.90;;;;;;5032966;28;20056;-72
2023/07/10 02:08:48;;;;;;;21.92;17.00;;;19.40;99.90;;;;;;5033657;28;20081;-68
2023/07/10 02:11:14;;;;;;;24.92;17.58;;;19.40;99.90;;;;;;5032955;28;20123;-69
2023/07/10 02:13:40;;;;;;;23.30;16.15;;;19.30;99.90;;;;;;5033262;28;20475;-70
2023/07/10 02:16:11;;;;;;;26.90;16.65;;;19.30;99.90;;;;;;5032785;28;20549;-68
2023/07/10 02:18:37;;;;;;;24.55;15.85;;;19.30;99.90;;;;;;5033617;28;20041;-68
2023/07/10 02:21:03;;;;;;;25.60;15.95;;;19.30;99.90;;;;;;5033641;28;20515;-69
2023/07/10 02:23:30;;;;;;;26.77;17.08;;;19.30;99.90;;;;;;5033249;28;20048;-68
2023/07/10 02:25:55;;;;;;;27.30;16.52;;;19.30;99.90;;;;;;5033751;28;20479;-70
2023/07/10 02:28:22;;;;;;;24.92;16.70;;;19.30;99.90;;;;;;5031557;28;20042;-69
2023/07/10 02:30:48;;;;;;;23.17;16.40;;;19.30;99.90;;;;;;5032180;28;20057;-69
2023/07/10 02:33:14;;;;;;;25.20;16.08;;;19.30;99.90;;;;;;5032619;28;20081;-69
2023/07/10 02:35:40;;;;;;;25.55;15.90;;;19.30;99.90;;;;;;5015767;28;20108;-69
2023/07/10 02:38:07;;;;;;;20.60;14.43;;;19.30;99.90;;;;;;5033538;28;20406;-70
2023/07/10 02:40:33;;;;;;;20.10;14.57;;;19.30;99.90;;;;;;5031783;28;20076;-68
2023/07/10 02:42:59;;;;;;;22.25;14.50;;;19.40;99.90;;;;;;5032159;28;20064;-69
2023/07/10 02:45:25;;;;;;;20.30;14.02;;;19.40;99.90;;;;;;5033331;28;20128;-69
2023/07/10 02:47:51;;;;;;;19.08;13.30;;;19.30;99.90;;;;;;5033026;28;20124;-69
2023/07/10 02:50:17;;;;;;;20.10;12.65;;;19.30;99.90;;;;;;5031687;28;20129;-68
2023/07/10 02:52:42;;;;;;;21.38;12.88;;;19.30;99.90;;;;;;5031831;28;20049;-70
2023/07/10 02:55:08;;;;;;;18.92;12.63;;;19.20;99.90;;;;;;5032065;28;20443;-69
2023/07/10 02:57:34;;;;;;;18.17;12.68;;;19.30;99.90;;;;;;5031844;28;20084;-70
2023/07/10 03:00:00;;;;;;;18.50;11.85;;;19.30;99.90;;;;;;5032914;28;20053;-69
2023/07/10 03:02:25;;;;;;;17.80;11.13;;;19.20;99.90;;;;;;5033070;28;20514;-70
2023/07/10 03:04:51;;;;;;;15.90;11.23;;;19.20;99.90;;;;;;5014864;28;20092;-69
2023/07/10 03:07:17;;;;;;;18.08;11.45;;;19.20;99.90;;;;;;5031773;28;20049;-69
2023/07/10 03:09:42;;;;;;;18.70;12.38;;;19.20;99.90;;;;;;5014636;28;20376;-69
2023/07/10 03:12:09;;;;;;;20.33;12.02;;;19.20;99.90;;;;;;5032936;28;20049;-69
2023/07/10 03:14:34;;;;;;;18.73;12.40;;;19.20;99.90;;;;;;5032533;28;20187;-70
2023/07/10 03:17:00;;;;;;;18.58;11.02;;;19.20;99.90;;;;;;5031574;28;20168;-70
2023/07/10 03:19:31;;;;;;;17.17;10.68;;;19.20;99.90;;;;;;5031265;28;20054;-69
2023/07/10 03:21:57;;;;;;;14.57;11.00;;;19.20;99.90;;;;;;5032356;28;20392;-70
2023/07/10 03:24:23;;;;;;;17.10;10.65;;;19.20;99.90;;;;;;5032706;28;20045;-69
2023/07/10 03:26:48;;;;;;;14.18;10.23;;;19.20;99.90;;;;;;5032167;28;20504;-68
2023/07/10 03:29:15;;;;;;;14.68;10.45;;;19.20;99.90;;;;;;5032466;28;20056;-68
2023/07/10 03:31:42;;;;;;;14.52;10.05;;;19.20;99.90;;;;;;5032091;28;20132;-70
2023/07/10 03:34:08;;;;;;;12.43;8.77;;;19.20;99.90;;;;;;5032439;28;20053;-69
2023/07/10 03:36:34;;;;;;;14.13;8.95;;;19.20;99.90;;;;;;5015087;28;20050;-69
2023/07/10 03:39:00;;;;;;;12.32;8.95;;;19.20;99.90;;;;;;5031231;28;20152;-69
2023/07/10 03:41:26;;;;;;;11.52;8.60;;;19.20;99.90;;;;;;5032197;28;20498;-68
2023/07/10 03:43:53;;;;;;;12.75;9.05;;;19.20;99.90;;;;;;5031827;28;20401;-68
2023/07/10 03:46:19;;;;;;;12.80;9.00;;;19.20;99.90;;;;;;5032378;28;20053;-69
2023/07/10 03:48:45;;;;;;;12.23;8.85;;;19.30;99.90;;;;;;5031835;28;20493;-69
2023/07/10 03:51:11;;;;;;;13.30;9.32;;;19.20;99.90;;;;;;5032452;28;20049;-69
2023/07/10 03:53:36;;;;;;;13.60;8.63;;;19.20;99.90;;;;;;5032268;28;20053;-73
2023/07/10 03:56:02;;;;;;;12.20;8.80;;;19.20;99.90;;;;;;5032136;28;20049;-68
2023/07/10 03:58:30;;;;;;;13.55;9.40;;;19.20;99.90;;;;;;5031207;28;20507;-68
2023/07/10 04:00:58;;;;;;;13.25;8.98;;;19.10;99.90;;;;;;5031718;28;20061;-69
2023/07/10 04:03:26;;;;;;;13.82;9.43;;;19.20;99.90;;;;;;5030960;28;20061;-68
2023/07/10 04:05:54;;;;;;;15.57;9.90;;;19.20;99.90;;;;;;5047061;28;20176;-70
2023/07/10 04:08:43;;;;;;;17.92;10.10;;;19.20;99.90;;;;;;5031983;28;20069;-68
2023/07/10 04:11:21;;;;;;;13.80;9.35;;;19.20;99.90;;;;;;5031036;28;20208;-69
2023/07/10 04:13:49;;;;;;;15.00;9.27;;;19.20;99.90;;;;;;5031577;28;20049;-69
2023/07/10 04:16:20;;;;;;;15.07;9.82;;;19.20;99.90;;;;;;5031039;28;20050;-69
2023/07/10 04:18:48;;;;;;;13.25;9.77;;;19.20;99.90;;;;;;5031557;28;20042;-69
2023/07/10 04:21:23;;;;;;;13.30;9.27;;;19.20;99.90;;;;;;5031856;28;20145;-68
2023/07/10 04:23:49;;;;;;;13.82;8.63;;;19.20;99.90;;;;;;5031300;28;20045;-71
2023/07/10 04:26:27;;;;;;;11.68;8.40;;;19.20;99.90;;;;;;5031011;28;20053;-69
2023/07/10 04:28:55;;;;;;;13.02;8.43;;;19.20;99.90;;;;;;5031359;28;20107;-68
2023/07/10 04:31:22;;;;;;;12.05;8.55;;;19.30;99.90;;;;;;5031128;28;20112;-69
2023/07/10 04:33:49;;;;;;;13.13;8.55;;;19.20;99.90;;;;;;5031183;28;20053;-68
2023/07/10 04:36:15;;;;;;;10.13;7.18;;;19.20;99.90;;;;;;5031728;28;20466;-70
2023/07/10 04:38:41;;;;;;;10.50;6.53;;;19.30;99.90;;;;;;5030381;28;20081;-69
2023/07/10 04:41:09;;;;;;;11.13;6.43;;;19.30;99.90;;;;;;5030258;28;20054;-71
2023/07/10 04:43:35;;;;;;;11.05;6.72;;;19.20;99.90;;;;;;5030351;28;20038;-70
2023/07/10 04:46:03;;;;;;;7.85;5.20;;;19.20;99.90;;;;;;5030287;28;20352;-69
2023/07/10 04:48:30;;;;;;;11.73;5.72;;;19.20;99.90;;;;;;5031499;28;20053;-69
2023/07/10 04:50:59;;;;;;;10.43;5.70;;;19.20;99.90;;;;;;5030849;28;20558;-68
2023/07/10 04:53:25;;;;;;;10.18;4.68;;;19.30;99.90;;;;;;5033655;28;20456;-68
2023/07/10 04:55:52;;;;;;;8.70;5.07;;;19.20;99.90;;;;;;5033527;28;20494;-69
2023/07/10 04:58:18;;;;;;;9.40;5.40;;;19.30;99.90;;;;;;5035423;28;20050;-69
2023/07/10 05:00:52;;;;;;;11.13;5.70;;;19.30;99.90;;;;;;5034655;28;20053;-74
2023/07/10 05:03:17;;;;;;;8.63;5.73;;;19.30;99.90;;;;;;5050250;28;20049;-69
2023/07/10 05:05:51;;;;;;;12.82;6.28;;;19.40;99.90;;;;;;5033942;28;20506;-69
2023/07/10 05:08:17;;;;;;;9.50;5.90;;;19.40;99.90;;;;;;5035277;28;20049;-70
2023/07/10 05:10:43;;;;;;;10.43;6.25;;;19.30;99.90;;;;;;5017548;28;20156;-68
2023/07/10 05:13:09;;;;;;;11.13;5.88;;;19.30;99.90;;;;;;5050171;28;20124;-69
2023/07/10 05:15:35;;;;;;;8.50;5.70;;;19.30;99.90;;;;;;5035039;28;20115;-68
2023/07/10 05:18:01;;;;;;;9.32;5.68;;;19.30;99.90;;;;;;5034630;28;20049;-72
2023/07/10 05:20:26;;;;;;;10.52;5.90;;;19.20;99.90;;;;;;5033857;28;20057;-69
2023/07/10 05:22:52;;;;;;;9.60;6.13;;;19.30;99.90;;;;;;5033182;28;20148;-70
2023/07/10 05:25:19;;;;;;;8.57;5.55;;;19.30;99.90;;;;;;5017187;28;20391;-69
2023/07/10 05:27:45;;;;;;;10.13;5.70;;;19.40;99.90;;;;;;5034978;28;20096;-69
2023/07/10 05:30:11;;;;;;;9.60;5.68;;;19.40;99.90;;;;;;5034180;28;20085;-71
2023/07/10 05:32:37;;;;;;;9.40;5.68;;;19.40;99.90;;;;;;5034413;28;20048;-72
2023/07/10 05:35:03;;;;;;;9.30;5.72;;;19.50;99.90;;;;;;5032940;28;20045;-70
2023/07/10 05:37:29;;;;;;;9.70;5.88;;;19.50;99.90;;;;;;5016749;28;20411;-69
2023/07/10 05:39:54;;;;;;;7.50;5.25;;;19.50;99.90;;;;;;5034224;28;20067;-70
2023/07/10 05:42:20;;;;;;;7.82;5.10;;;19.60;99.90;;;;;;5033054;28;20132;-69
2023/07/10 05:44:46;;;;;;;9.27;5.38;;;19.70;99.90;;;;;;5034133;28;20556;-69
2023/07/10 05:47:11;;;;;;;9.10;5.18;;;19.80;99.90;;;;;;5032704;28;20120;-70
2023/07/10 05:49:37;;;;;;;9.43;4.85;;;19.90;99.90;;;;;;5034191;28;20056;-69
2023/07/10 05:52:03;;;;;;;10.57;5.25;;;20.10;99.90;;;;;;5015637;28;20061;-68
2023/07/10 05:54:29;;;;;;;10.63;4.57;;;20.40;99.90;;;;;;5034411;28;20053;-69
2023/07/10 05:57:01;;;;;;;7.78;4.35;;;20.70;99.90;;;;;;5017310;28;20128;-69
2023/07/10 05:59:26;;;;;;;8.90;4.57;;;20.80;99.90;;;;;;5033816;28;20504;-70
2023/07/10 06:01:52;;;;;;;8.13;4.10;;;20.70;99.90;;;;;;5033813;28;20049;-73
2023/07/10 06:04:18;;;;;;;8.65;4.25;;;20.60;99.90;;;;;;5032527;28;20068;-70
2023/07/10 06:06:44;;;;;;;6.03;3.92;;;20.50;99.90;;;;;;5016708;28;20493;-69
2023/07/10 06:09:10;;;;;;;9.05;4.28;;;20.50;99.90;;;;;;5032325;28;20108;-69
2023/07/10 06:11:36;;;;;;;9.52;4.25;;;20.50;99.90;;;;;;5033929;28;20452;-69
2023/07/10 06:14:01;;;;;;;6.78;4.00;;;20.40;99.90;;;;;;5015732;28;20049;-69
2023/07/10 06:16:27;;;;;;;9.65;3.75;;;20.60;99.90;;;;;;5033837;28;20099;-69
2023/07/10 06:18:53;;;;;;;10.50;4.32;;;20.80;99.90;;;;;;5033948;28;20150;-69
2023/07/10 06:21:19;;;;;;;8.25;3.83;;;21.00;99.90;;;;;;5033315;28;20037;-70
2023/07/10 06:23:44;;;;;;;8.30;3.65;;;21.10;99.90;;;;;;5032843;28;20376;-70
2023/07/10 06:26:10;;;;;;;9.52;3.83;;;21.10;99.90;;;;;;5032252;28;20086;-71
2023/07/10 06:28:36;;;;;;;7.03;4.07;;;21.20;99.90;;;;;;5033633;28;20041;-71
2023/07/10 06:31:05;;;;;;;9.10;3.80;;;21.40;99.90;;;;;;5032946;28;20045;-70
2023/07/10 06:33:32;;;;;;;9.77;3.85;;;21.80;99.90;;;;;;5033407;28;20050;-70
2023/07/10 06:35:58;;;;;;;11.18;3.55;;;22.00;99.90;;;;;;5033621;28;20041;-75
2023/07/10 06:38:25;;;;;;;6.18;3.17;;;22.10;99.90;;;;;;5033587;28;20119;-70
2023/07/10 06:40:51;;;;;;;9.00;3.67;;;22.20;99.90;;;;;;5032405;28;20352;-72
2023/07/10 06:43:19;;;;;;;9.73;3.80;;;22.20;99.90;;;;;;5032220;28;20081;-71
2023/07/10 06:45:46;;;;;;;9.60;3.55;;;22.90;99.90;;;;;;5015683;28;20132;-71
2023/07/10 06:48:12;;;;;;;8.15;3.33;;;23.90;99.90;;;;;;5048200;28;20045;-71
2023/07/10 06:50:38;;;;;;;7.75;3.35;;;24.80;99.90;;;;;;5015051;28;20081;-70
2023/07/10 06:53:04;;;;;;;8.57;3.05;;;25.60;99.90;;;;;;5032585;28;20049;-69
2023/07/10 06:55:31;;;;;;;7.10;3.33;;;26.40;99.90;;;;;;5033252;28;20046;-69
2023/07/10 06:57:56;;;;;;;7.85;3.53;;;27.00;99.90;;;;;;5048632;28;20045;-71
2023/07/10 07:00:22;;;;;;;6.93;3.00;;;27.60;99.90;;;;;;5032298;28;20061;-72
2023/07/10 07:02:48;;;;;;;8.82;3.03;;;27.80;99.90;;;;;;5015010;28;20141;-70
2023/07/10 07:05:15;;;;;;;9.38;3.10;;;27.90;99.90;;;;;;5015062;28;20115;-70
2023/07/10 07:07:41;;;;;;;7.13;3.05;;;28.20;99.90;;;;;;5032951;28;20057;-72
2023/07/10 07:10:14;;;;;;;8.30;3.30;;;28.50;99.90;;;;;;5032582;28;20091;-71
2023/07/10 07:12:42;;;;;;;6.70;2.88;;;28.80;99.60;;;;;;5033101;28;20061;-72
2023/07/10 07:15:10;;;;;;;7.07;2.88;;;29.20;99.00;;;;;;5031805;28;20097;-71
2023/07/10 07:17:37;;;;;;;6.90;2.60;;;29.50;99.00;;;;;;5032682;28;20123;-70
2023/07/10 07:20:03;;;;;;;6.32;2.83;;;29.80;98.40;;;;;;5031849;28;20140;-74
2023/07/10 07:22:28;;;;;;;6.05;2.53;;;30.20;98.30;;;;;;5031384;28;20107;-69
2023/07/10 07:24:54;;;;;;;7.90;2.42;;;30.40;97.50;;;;;;5031299;28;20050;-70
2023/07/10 07:27:20;;;;;;;7.78;2.40;;;30.50;96.60;;;;;;5032292;28;20045;-69
2023/07/10 07:29:50;;;;;;;7.53;2.42;;;30.80;96.20;;;;;;5031590;28;20045;-70
2023/07/10 07:32:16;;;;;;;7.68;2.58;;;30.80;95.30;;;;;;5031542;28;20050;-70
2023/07/10 07:34:42;;;;;;;5.30;2.25;;;30.90;96.40;;;;;;5015291;28;20430;-70
2023/07/10 07:37:07;;;;;;;8.02;2.85;;;30.90;96.80;;;;;;5032252;28;20045;-70
2023/07/10 07:39:33;;;;;;;7.82;2.58;;;31.10;95.60;;;;;;5031180;28;20056;-70
2023/07/10 07:42:00;;;;;;;7.80;2.88;;;31.50;95.10;;;;;;5031931;28;20438;-69
2023/07/10 07:44:26;;;;;;;6.72;2.28;;;31.50;95.20;;;;;;5030601;28;20046;-70
2023/07/10 07:46:52;;;;;;;6.57;2.65;;;31.70;95.10;;;;;;5015011;28;20042;-71
2023/07/10 07:49:17;;;;;;;5.68;2.30;;;32.10;95.00;;;;;;5030589;28;20049;-70
2023/07/10 07:51:44;;;;;;;5.90;2.42;;;32.40;94.40;;;;;;5014815;28;20431;-70
2023/07/10 07:54:12;;;;;;;7.50;2.78;;;32.30;94.30;;;;;;5032090;28;20045;-70
2023/07/10 07:56:38;;;;;;;7.20;2.17;;;31.70;93.70;;;;;;5031506;28;20049;-72
2023/07/10 07:59:04;;;;;;;7.13;2.67;;;31.30;94.50;;;;;;5031315;28;20392;-71
2023/07/10 08:01:30;;;;;;;9.90;2.65;;;30.80;94.50;;;;;;5030115;28;20123;-72
2023/07/10 08:03:56;;;;;;;8.52;2.75;;;30.80;94.90;;;;;;5032189;28;20132;-75
2023/07/10 08:06:26;;;;;;;7.40;2.67;;;30.90;94.60;;;;;;5031753;28;20064;-72
2023/07/10 08:08:51;;;;;;;7.82;2.75;;;31.20;94.80;;;;;;5030969;28;20443;-72
2023/07/10 08:11:17;;;;;;;7.40;2.78;;;31.10;94.00;;;;;;5030068;28;20124;-73
2023/07/10 08:13:43;;;;;;;6.63;2.47;;;31.40;93.90;;;;;;5014377;28;20060;-72
2023/07/10 08:16:09;;;;;;;6.47;2.50;;;31.20;92.90;;;;;;5014239;28;20091;-77
2023/07/10 08:18:35;;;;;;;8.18;2.55;;;31.20;93.60;;;;;;5031025;28;20041;-73
2023/07/10 08:21:02;;;;;;;7.95;2.35;;;31.50;93.80;;;;;;5031883;28;20098;-72
2023/07/10 08:23:28;;;;;;;6.40;2.20;;;31.40;93.40;;;;;;5030415;28;20045;-70
2023/07/10 08:25:54;;;;;;;7.60;2.60;;;31.40;93.70;;;;;;5029269;28;20092;-73
2023/07/10 08:28:20;;;;;;;6.50;2.45;;;31.20;93.30;;;;;;5031949;28;20455;-70
2023/07/10 08:30:45;;;;;;;8.77;2.60;;;31.00;93.00;;;;;;5034416;28;20065;-70
2023/07/10 08:33:11;;;;;;;6.22;2.17;;;31.10;93.40;;;;;;5033973;28;20088;-75
2023/07/10 08:35:37;;;;;;;8.75;2.55;;;31.50;93.20;;;;;;5033243;28;20630;-71
2023/07/10 08:38:02;;;;;;;9.32;2.47;;;31.60;93.00;;;;;;5032997;28;20483;-70
2023/07/10 08:40:37;;;;;;;6.43;2.35;;;32.10;92.20;;;;;;5033009;28;20148;-71
2023/07/10 08:43:37;;;;;;;8.95;2.42;;;32.30;91.10;;;;;;5033405;28;20410;-73
2023/07/10 08:46:19;;;;;;;7.35;2.50;;;32.40;91.70;;;;;;5023528;28;20116;-73
2023/07/10 08:48:59;;;;;;;8.98;2.30;;;32.40;91.70;;;;;;5034458;28;20148;-72
2023/07/10 08:51:28;;;;;;;7.50;2.55;;;32.50;91.70;;;;;;5033129;28;20494;-73
2023/07/10 08:54:10;;;;;;;9.10;2.67;;;32.60;91.40;;;;;;5034501;28;20045;-71
2023/07/10 08:56:58;;;;;;;5.65;2.35;;;32.60;90.80;;;;;;5033155;28;20053;-70
2023/07/10 08:59:27;;;;;;;13.57;2.40;;;32.80;91.00;;;;;;5033878;28;20128;-72
2023/07/10 09:01:55;;;;;;;10.35;3.20;;;32.90;91.00;;;;;;5032600;28;20485;-71
2023/07/10 09:04:22;;;;;;;6.07;2.20;;;33.10;91.20;;;;;;5032930;28;20049;-71
2023/07/10 09:06:54;;;;;;;7.75;2.53;;;32.90;90.70;;;;;;5033938;28;20041;-71
2023/07/10 09:09:43;;;;;;;7.78;2.20;;;32.50;90.30;;;;;;5032648;28;20483;-72
2023/07/10 09:12:15;;;;;;;7.55;2.60;;;32.80;90.80;;;;;;5034161;28;20049;-71
2023/07/10 09:15:06;;;;;;;8.03;2.40;;;33.20;91.10;;;;;;5033744;28;20048;-71
2023/07/10 09:17:50;;;;;;;6.70;2.40;;;33.40;90.40;;;;;;5023114;28;20284;-72
2023/07/10 09:20:20;;;;;;;6.85;2.80;;;33.50;89.80;;;;;;5033943;28;20041;-72
2023/07/10 09:22:56;;;;;;;5.97;2.42;;;33.20;90.30;;;;;;5033602;28;20128;-71
2023/07/10 09:25:23;;;;;;;6.00;2.25;;;32.80;90.50;;;;;;5032301;28;20049;-72
2023/07/10 09:27:49;;;;;;;7.97;2.42;;;32.90;90.70;;;;;;5032581;28;20077;-71
2023/07/10 09:30:22;;;;;;;10.10;2.53;;;32.90;90.40;;;;;;5033668;28;20084;-71
2023/07/10 09:32:50;;;;;;;5.57;1.98;;;33.00;89.80;;;;;;5033510;28;20553;-70
2023/07/10 09:35:17;;;;;;;6.22;2.28;;;33.10;89.00;;;;;;5033577;28;20041;-70
2023/07/10 09:37:49;;;;;;;5.80;2.22;;;32.90;90.10;;;;;;5031407;28;20104;-71
2023/07/10 09:40:35;;;;;;;5.68;2.25;;;32.60;89.50;;;;;;5031709;28;20590;-72
2023/07/10 09:43:08;;;;;;;8.18;2.67;;;32.60;89.10;;;;;;5032760;28;20053;-72
2023/07/10 09:45:36;;;;;;;8.38;2.42;;;32.90;89.60;;;;;;5030436;28;20061;-69
2023/07/10 09:48:10;;;;;;;11.73;2.75;;;32.90;90.00;;;;;;5015023;28;20041;-72
2023/07/10 09:50:36;;;;;;;7.18;2.50;;;32.90;89.60;;;;;;5032810;28;20050;-72
2023/07/10 09:53:02;;;;;;;9.02;2.67;;;32.50;89.60;;;;;;5032587;28;20058;-73
2023/07/10 09:55:27;;;;;;;6.65;2.50;;;32.30;90.20;;;;;;5030329;28;20049;-71
2023/07/10 09:58:02;;;;;;;8.73;2.97;;;32.00;90.40;;;;;;5033440;28;20050;-69
2023/07/10 10:00:29;;;;;;;8.23;2.88;;;31.80;90.90;;;;;;5031395;28;20084;-68
2023/07/10 10:03:02;;;;;;;9.90;2.67;;;31.20;90.60;;;;;;5032705;28;20472;-67
2023/07/10 10:05:28;;;;;;;;;;;31.00;90.50;;;;;;5049152;28;20045;-67
2023/07/10 10:08:04;;;;;;;9.23;2.50;;;30.70;90.90;;;;;;5033696;28;19921;-67
2023/07/10 10:10:37;;;;;;;9.85;2.92;;;30.40;91.00;;;;;;5033152;28;20043;-69
2023/07/10 10:13:12;;;;;;;10.35;3.10;;;30.10;91.50;;;;;;5033506;28;20124;-69
2023/07/10 10:15:46;;;;;;;9.60;2.75;;;29.90;91.70;;;;;;5033313;28;20053;-68
2023/07/10 10:19:05;;;;;;;9.93;2.67;;;29.90;92.20;;;;;;5033773;28;20076;-69
2023/07/10 10:21:33;;;;;;;10.80;2.83;;;29.60;92.60;;;;;;5007469;28;20495;-67
2023/07/10 10:24:04;;;;;;;10.82;2.53;;;29.60;93.00;;;;;;5049142;28;20049;-68
2023/07/10 10:26:42;;;;;;;10.48;2.80;;;29.50;92.90;;;;;;5033132;28;20053;-68
2023/07/10 10:29:35;;;;;;;8.73;2.80;;;29.50;93.20;;;;;;5033572;28;20056;-67
2023/07/10 10:32:31;;;;;;;13.50;2.70;;;29.50;92.80;;;;;;5033341;28;20052;-67
2023/07/10 10:35:09;;;;;;;10.57;2.80;;;29.50;93.00;;;;;;5049216;28;20045;-67
2023/07/10 10:38:02;;;;;;;11.57;3.00;;;29.40;92.70;;;;;;5032969;28;20053;-67
2023/07/10 10:40:44;;;;;;;10.68;2.60;;;29.30;92.30;;;;;;5033238;28;20037;-69
2023/07/10 10:43:36;;;;;;;11.57;2.75;;;29.40;92.30;;;;;;5048736;28;20065;-70
2023/07/10 10:46:26;;;;;;;10.93;2.63;;;29.40;92.50;;;;;;5026451;28;20119;-68
2023/07/10 10:49:18;;;;;;;10.15;2.55;;;29.30;93.10;;;;;;5032527;28;20042;-69
2023/07/10 10:52:16;;;;;;;9.40;2.50;;;29.40;92.50;;;;;;5009171;28;20140;-69
2023/07/10 10:55:32;;;;;;;9.13;3.00;;;29.40;92.60;;;;;;5048010;28;20053;-67
2023/07/10 10:57:58;;;;;;;9.60;2.80;;;29.10;91.80;;;;;;4971861;28;20047;-67
2023/07/10 11:00:37;;;;;;;8.88;2.63;;;29.10;92.40;;;;;;5019883;28;20402;-68
2023/07/10 11:03:22;;;;;;;7.20;2.28;;;28.90;92.40;;;;;;5032876;28;20049;-68
2023/07/10 11:05:54;;;;;;;9.68;3.00;;;28.90;92.10;;;;;;5031036;28;20483;-67
2023/07/10 11:08:30;;;;;;;9.83;2.37;;;28.90;92.20;;;;;;5015186;28;20096;-67
2023/07/10 11:10:57;;;;;;;6.35;2.20;;;28.80;92.10;;;;;;5033021;28;20045;-68
2023/07/10 11:13:37;;;;;;;11.52;2.95;;;28.80;92.70;;;;;;5031824;28;20084;-70
2023/07/10 11:16:06;;;;;;;7.78;2.65;;;28.90;92.80;;;;;;5031508;28;20524;-66
2023/07/10 11:18:33;;;;;;;10.13;2.70;;;28.90;91.80;;;;;;5032308;28;20081;-73
2023/07/10 11:21:01;;;;;;;9.57;2.47;;;28.80;92.20;;;;;;5048255;28;20045;-71
2023/07/10 11:23:36;;;;;;;10.65;2.38;;;28.70;92.40;;;;;;5032745;28;20053;-67
2023/07/10 11:26:22;;;;;;;9.60;2.70;;;28.70;92.30;;;;;;5031437;28;20054;-68
2023/07/10 11:29:17;;;;;;;11.10;2.33;;;28.80;92.70;;;;;;5029425;28;20054;-67
2023/07/10 11:31:49;;;;;;;10.30;2.88;;;28.80;92.50;;;;;;5031038;28;20065;-68
2023/07/10 11:34:34;;;;;;;8.27;2.90;;;28.70;92.50;;;;;;5031659;28;20037;-68
2023/07/10 11:37:00;;;;;;;8.90;2.70;;;28.70;92.50;;;;;;5032186;28;20046;-68
2023/07/10 11:39:40;;;;;;;6.65;2.50;;;28.60;92.00;;;;;;5031056;28;20060;-68
2023/07/10 11:42:15;;;;;;;9.00;2.67;;;28.50;91.90;;;;;;5032475;28;20041;-68
2023/07/10 11:44:45;;;;;;;9.00;2.13;;;28.60;92.50;;;;;;5032366;28;20049;-69
2023/07/10 11:47:19;;;;;;;8.55;2.72;;;28.80;92.60;;;;;;5029746;28;20060;-69
2023/07/10 11:50:12;;;;;;;8.50;2.40;;;28.80;91.10;;;;;;5031908;28;20084;-69
2023/07/10 11:52:41;;;;;;;8.13;2.60;;;28.80;90.60;;;;;;5031957;28;20050;-68
2023/07/10 11:55:22;;;;;;;9.68;2.33;;;28.60;91.10;;;;;;5032411;28;20049;-71
2023/07/10 11:58:24;;;;;;;7.60;2.25;;;28.60;91.10;;;;;;5032079;28;20049;-68
2023/07/10 12:00:51;;;;;;;6.82;2.10;;;28.60;91.30;;;;;;5032926;28;20093;-69
2023/07/10 12:03:17;;;;;;;7.38;2.05;;;28.40;91.10;;;;;;5037955;28;20434;-69
2023/07/10 12:05:42;;;;;;;11.95;2.47;;;28.50;91.00;;;;;;5037779;28;20107;-69
2023/07/10 12:08:08;;;;;;;7.97;2.15;;;28.70;91.10;;;;;;5037848;28;20045;-67
2023/07/10 12:10:42;;;;;;;9.45;2.90;;;28.80;91.40;;;;;;5038709;28;20085;-69
2023/07/10 12:13:27;;;;;;;7.90;2.63;;;28.60;92.50;;;;;;5038930;28;20050;-68
2023/07/10 12:15:54;;;;;;;10.10;2.78;;;28.40;92.70;;;;;;5053980;28;20053;-69
2023/07/10 12:18:33;;;;;;;6.53;2.10;;;28.30;92.40;;;;;;5038712;28;20041;-69
2023/07/10 12:21:01;;;;;;;7.35;2.08;;;27.90;93.30;;;;;;5051771;28;20049;-70
2023/07/10 12:23:27;;;;;;;8.20;2.35;;;27.60;93.80;;;;;;5020326;28;20059;-68
2023/07/10 12:25:55;;;;;;;8.30;2.13;;;27.40;94.10;;;;;;5020628;28;20049;-68
2023/07/10 12:28:23;;;;;;;8.30;2.67;;;27.30;93.80;;;;;;5038504;28;20454;-69
2023/07/10 12:30:51;;;;;;;11.15;2.58;;;27.30;93.00;;;;;;5037015;28;20049;-70
2023/07/10 12:33:26;;;;;;;8.73;2.13;;;27.40;93.30;;;;;;5038703;28;20099;-69
2023/07/10 12:35:52;;;;;;;5.97;1.98;;;27.50;93.10;;;;;;5036951;28;20417;-69
2023/07/10 12:38:18;;;;;;;6.57;2.15;;;27.60;93.00;;;;;;5038805;28;20052;-71
2023/07/10 12:40:44;;;;;;;9.43;2.15;;;27.70;93.00;;;;;;5037667;28;20479;-68
2023/07/10 12:43:24;;;;;;;10.45;2.35;;;27.70;93.30;;;;;;5038444;28;20049;-68
2023/07/10 12:46:01;;;;;;;11.00;2.50;;;27.60;93.40;;;;;;5037748;28;20045;-69
2023/07/10 12:48:31;;;;;;;12.50;3.10;;;27.40;93.40;;;;;;5038393;28;20083;-69
2023/07/10 12:51:00;;;;;;;7.88;2.45;;;27.40;93.40;;;;;;5037846;28;20048;-68
2023/07/10 12:53:32;;;;;;;6.53;1.85;;;27.30;93.00;;;;;;5038414;28;20124;-68
2023/07/10 12:56:16;;;;;;;7.00;2.25;;;27.30;92.90;;;;;;5037174;28;20045;-69